Time;durP1;ratioP1;P1;durP2;ratioP2;P2;SDS_P1;SDS_P2;PMS_P1;PMS_P2;Temp;Humidity;BMP_temperature;BMP_pressure;BME280_temperature;BME280_humidity;BME280_pressure;Samples;Min_cycle;Max_cycle;Signal;HPM_P1;HPM_P2
2023/09/16 00:00:11;;;;;;;4.00;2.10;;;;;;;;;;5092592;28;20422;-77
2023/09/16 00:02:37;;;;;;;3.50;3.10;;;;;;;;;;5092123;28;20446;-78
2023/09/16 00:05:04;;;;;;;4.30;2.93;;;;;;;;;;5092334;28;20406;-77
2023/09/16 00:07:30;;;;;;;5.33;2.83;;;;;;;;;;5093083;28;20433;-77
2023/09/16 00:09:56;;;;;;;6.27;2.40;;;;;;;;;;5093274;28;20459;-77
2023/09/16 00:12:22;;;;;;;3.60;3.30;;;;;;;;;;5092732;28;20400;-78
2023/09/16 00:14:48;;;;;;;4.60;3.27;;;;;;;;;;5093190;28;20410;-78
2023/09/16 00:17:14;;;;;;;4.00;2.87;;;;;;;;;;5090023;28;20955;-78
2023/09/16 00:19:40;;;;;;;3.10;2.20;;;;;;;;;;5084509;28;20185;-78
2023/09/16 00:22:10;;;;;;;5.20;3.23;;;;;;;;;;5077403;28;20431;-78
2023/09/16 00:24:36;;;;;;;4.53;2.80;;;;;;;;;;5072642;28;20213;-78
2023/09/16 00:27:01;;;;;;;7.50;2.87;;;;;;;;;;5088232;28;20448;-80
2023/09/16 00:29:27;;;;;;;5.63;3.13;;;;;;;;;;5072351;28;20261;-78
2023/09/16 00:31:53;;;;;;;3.17;2.10;;;;;;;;;;5083165;28;20188;-80
2023/09/16 00:34:19;;;;;;;7.07;4.40;;;;;;;;;;5080995;28;20918;-78
2023/09/16 00:36:45;;;;;;;2.50;2.00;;;;;;;;;;5086220;28;20191;-77
2023/09/16 00:39:11;;;;;;;4.37;2.53;;;;;;;;;;5092624;28;20420;-77
2023/09/16 00:41:39;;;;;;;4.13;2.43;;;;;;;;;;5092757;28;20745;-80
2023/09/16 00:44:05;;;;;;;3.00;2.70;;;;;;;;;;5092326;28;20923;-80
2023/09/16 00:46:31;;;;;;;3.67;3.00;;;;;;;;;;5092525;28;20415;-77
2023/09/16 00:48:56;;;;;;;5.23;3.27;;;;;;;;;;5092609;28;20204;-78
2023/09/16 00:51:22;;;;;;;3.50;2.80;;;;;;;;;;5092596;28;20180;-78
2023/09/16 00:53:52;;;;;;;5.33;2.93;;;;;;;;;;5092671;28;20778;-78
2023/09/16 00:56:18;;;;;;;4.40;2.97;;;;;;;;;;5092485;28;20406;-81
2023/09/16 00:58:51;;;;;;;4.07;2.90;;;;;;;;;;5092110;28;20421;-77
2023/09/16 01:01:17;;;;;;;5.93;3.60;;;;;;;;;;5092586;28;20427;-81
2023/09/16 01:03:44;;;;;;;4.20;2.60;;;;;;;;;;5092425;28;20457;-77
2023/09/16 01:06:11;;;;;;;5.33;2.47;;;;;;;;;;5092506;28;20501;-78
2023/09/16 01:08:37;;;;;;;5.00;2.13;;;;;;;;;;5091961;28;20864;-78
2023/09/16 01:11:06;;;;;;;3.77;2.70;;;;;;;;;;5092279;28;20421;-78
2023/09/16 01:13:33;;;;;;;5.37;3.27;;;;;;;;;;5108781;28;20419;-81
2023/09/16 01:16:18;;;;;;;5.33;3.40;;;;;;;;;;5096088;28;20419;-78
2023/09/16 01:18:46;;;;;;;3.73;2.73;;;;;;;;;;5096071;28;20406;-78
2023/09/16 01:21:13;;;;;;;4.13;2.53;;;;;;;;;;5096163;28;20425;-79
2023/09/16 01:23:39;;;;;;;5.73;3.40;;;;;;;;;;5096131;28;20402;-78
2023/09/16 01:26:05;;;;;;;5.10;2.83;;;;;;;;;;5111788;28;20410;-78
2023/09/16 01:28:32;;;;;;;3.33;2.80;;;;;;;;;;5095496;28;20812;-78
2023/09/16 01:30:58;;;;;;;4.60;2.87;;;;;;;;;;5096010;28;20175;-78
2023/09/16 01:33:32;;;;;;;6.50;4.00;;;;;;;;;;5095879;28;20421;-78
2023/09/16 01:36:10;;;;;;;5.53;3.53;;;;;;;;;;5095933;28;20409;-78
2023/09/16 01:38:37;;;;;;;6.37;3.20;;;;;;;;;;5095743;28;20414;-79
2023/09/16 01:41:04;;;;;;;5.10;3.87;;;;;;;;;;5095759;28;20825;-79
2023/09/16 01:43:31;;;;;;;5.33;3.17;;;;;;;;;;5095457;28;20761;-80
2023/09/16 01:45:57;;;;;;;6.93;3.63;;;;;;;;;;5095713;28;20445;-78
2023/09/16 01:48:23;;;;;;;4.83;4.33;;;;;;;;;;5095540;28;20518;-78
2023/09/16 01:50:49;;;;;;;6.03;4.33;;;;;;;;;;5095457;28;20418;-81
2023/09/16 01:53:16;;;;;;;5.00;3.63;;;;;;;;;;5095594;28;20456;-77
2023/09/16 01:55:42;;;;;;;5.43;2.93;;;;;;;;;;5095458;28;20414;-78
2023/09/16 01:58:08;;;;;;;4.80;3.20;;;;;;;;;;5095041;28;20445;-78
2023/09/16 02:00:34;;;;;;;5.47;3.60;;;;;;;;;;5095317;28;20767;-81
2023/09/16 02:03:00;;;;;;;4.40;3.90;;;;;;;;;;5095098;28;20452;-77
2023/09/16 02:05:26;;;;;;;3.57;3.23;;;;;;;;;;5095121;28;20425;-79
2023/09/16 02:07:52;;;;;;;3.47;2.93;;;;;;;;;;5095320;28;20913;-78
2023/09/16 02:10:18;;;;;;;5.73;4.47;;;;;;;;;;5095321;28;20426;-79
2023/09/16 02:12:44;;;;;;;4.47;2.70;;;;;;;;;;5094842;28;20174;-77
2023/09/16 02:15:10;;;;;;;4.70;3.73;;;;;;;;;;5095236;28;20172;-77
2023/09/16 02:17:41;;;;;;;5.57;4.20;;;;;;;;;;5094848;28;20782;-81
2023/09/16 02:20:11;;;;;;;5.17;4.30;;;;;;;;;;5095148;28;20406;-79
2023/09/16 02:22:40;;;;;;;6.70;3.97;;;;;;;;;;5079071;28;20501;-82
2023/09/16 02:25:06;;;;;;;5.93;3.90;;;;;;;;;;5074137;28;20418;-77
2023/09/16 02:27:32;;;;;;;6.73;3.20;;;;;;;;;;5074365;28;20414;-79
2023/09/16 02:29:58;;;;;;;4.20;3.73;;;;;;;;;;5074604;28;20826;-79
2023/09/16 02:32:24;;;;;;;5.30;3.53;;;;;;;;;;5074514;28;20407;-79
2023/09/16 02:34:50;;;;;;;5.33;3.27;;;;;;;;;;5074468;28;20173;-78
2023/09/16 02:37:16;;;;;;;4.50;3.43;;;;;;;;;;5074485;28;20809;-79
2023/09/16 02:39:42;;;;;;;8.33;5.23;;;;;;;;;;5074445;28;20505;-77
2023/09/16 02:42:07;;;;;;;4.77;3.73;;;;;;;;;;5074009;28;20412;-78
2023/09/16 02:44:33;;;;;;;4.87;4.10;;;;;;;;;;5074247;28;20173;-78
2023/09/16 02:46:59;;;;;;;5.10;4.40;;;;;;;;;;5074263;28;20410;-78
2023/09/16 02:49:26;;;;;;;4.20;3.40;;;;;;;;;;5072923;28;20478;-77
2023/09/16 02:51:52;;;;;;;5.50;4.17;;;;;;;;;;5074214;28;20407;-78
2023/09/16 02:54:21;;;;;;;11.10;4.53;;;;;;;;;;5074228;28;20487;-77
2023/09/16 02:56:47;;;;;;;4.40;3.70;;;;;;;;;;5073679;28;20411;-78
2023/09/16 02:59:12;;;;;;;5.23;4.30;;;;;;;;;;5074044;28;20423;-78
2023/09/16 03:01:38;;;;;;;7.43;5.43;;;;;;;;;;5073810;28;20414;-78
2023/09/16 03:04:04;;;;;;;5.93;4.13;;;;;;;;;;5074073;28;20180;-78
2023/09/16 03:06:30;;;;;;;6.60;5.47;;;;;;;;;;5073718;28;20165;-78
2023/09/16 03:08:56;;;;;;;6.70;4.40;;;;;;;;;;5073743;28;20918;-80
2023/09/16 03:11:22;;;;;;;5.43;3.90;;;;;;;;;;5073822;28;20219;-77
2023/09/16 03:13:48;;;;;;;5.47;4.87;;;;;;;;;;5073374;28;20415;-77
2023/09/16 03:16:18;;;;;;;10.67;5.70;;;;;;;;;;5073720;28;20402;-77
2023/09/16 03:18:49;;;;;;;7.87;4.80;;;;;;;;;;5073528;28;20407;-78
2023/09/16 03:21:16;;;;;;;4.27;3.87;;;;;;;;;;5073617;28;20809;-77
2023/09/16 03:23:45;;;;;;;6.90;5.10;;;;;;;;;;5073453;28;20437;-77
2023/09/16 03:26:12;;;;;;;5.80;4.90;;;;;;;;;;5073555;28;20411;-78
2023/09/16 03:28:40;;;;;;;5.00;4.50;;;;;;;;;;5073011;28;20969;-81
2023/09/16 03:31:06;;;;;;;5.40;4.90;;;;;;;;;;5074371;28;20403;-78
2023/09/16 03:33:32;;;;;;;5.67;3.93;;;;;;;;;;5093654;28;20920;-79
2023/09/16 03:35:58;;;;;;;5.30;4.57;;;;;;;;;;5092941;28;20236;-78
2023/09/16 03:38:28;;;;;;;7.83;4.27;;;;;;;;;;5093508;28;20505;-80
2023/09/16 03:40:54;;;;;;;6.07;4.80;;;;;;;;;;5093625;28;20786;-79
2023/09/16 03:43:20;;;;;;;6.93;4.73;;;;;;;;;;5093145;28;20413;-79
2023/09/16 03:45:46;;;;;;;6.13;4.40;;;;;;;;;;5093392;28;20406;-79
2023/09/16 03:48:12;;;;;;;5.83;4.40;;;;;;;;;;5093387;28;20457;-78
2023/09/16 03:50:38;;;;;;;7.77;5.40;;;;;;;;;;5093229;28;20531;-78
2023/09/16 03:53:04;;;;;;;6.43;3.73;;;;;;;;;;5092039;28;20414;-79
2023/09/16 03:55:30;;;;;;;5.27;4.73;;;;;;;;;;5093403;28;20249;-79
2023/09/16 03:57:56;;;;;;;5.47;4.30;;;;;;;;;;5092951;28;20406;-80
2023/09/16 04:00:22;;;;;;;7.63;5.07;;;;;;;;;;5093530;28;20623;-80
2023/09/16 04:02:48;;;;;;;6.07;4.40;;;;;;;;;;5091357;28;20561;-79
2023/09/16 04:05:14;;;;;;;6.57;5.80;;;;;;;;;;5093262;28;20917;-78
2023/09/16 04:07:40;;;;;;;5.40;4.57;;;;;;;;;;5093173;28;20406;-80
2023/09/16 04:10:07;;;;;;;6.00;5.07;;;;;;;;;;5093116;28;20476;-78
2023/09/16 04:12:33;;;;;;;6.83;5.57;;;;;;;;;;5092631;28;20402;-78
2023/09/16 04:14:59;;;;;;;6.17;3.93;;;;;;;;;;5092904;28;20417;-77
2023/09/16 04:17:24;;;;;;;6.50;5.53;;;;;;;;;;5093073;28;20918;-77
2023/09/16 04:19:50;;;;;;;6.70;5.00;;;;;;;;;;5092981;28;20963;-80
2023/09/16 04:22:16;;;;;;;5.80;5.30;;;;;;;;;;5092939;28;20175;-76
2023/09/16 04:24:42;;;;;;;8.77;5.90;;;;;;;;;;5092678;28;20413;-77
2023/09/16 04:27:08;;;;;;;6.00;4.90;;;;;;;;;;5092810;28;20167;-81
2023/09/16 04:29:34;;;;;;;5.37;4.63;;;;;;;;;;5092796;28;20946;-77
2023/09/16 04:32:00;;;;;;;7.23;5.20;;;;;;;;;;5092822;28;20175;-77
2023/09/16 04:34:26;;;;;;;5.30;4.80;;;;;;;;;;5092898;28;20183;-76
2023/09/16 04:36:54;;;;;;;6.20;5.00;;;;;;;;;;5092863;28;20998;-77
2023/09/16 04:39:23;;;;;;;6.10;5.30;;;;;;;;;;5092866;28;20422;-79
2023/09/16 04:41:58;;;;;;;6.10;4.50;;;;;;;;;;5091159;28;20417;-80
2023/09/16 04:44:24;;;;;;;6.40;5.10;;;;;;;;;;5092863;28;20427;-77
2023/09/16 04:46:53;;;;;;;5.60;4.83;;;;;;;;;;5092488;28;20421;-78
2023/09/16 04:49:23;;;;;;;4.50;4.10;;;;;;;;;;5096789;28;20873;-80
2023/09/16 04:51:49;;;;;;;6.70;5.97;;;;;;;;;;5096718;28;20404;-80
2023/09/16 04:54:15;;;;;;;7.00;5.37;;;;;;;;;;5096686;28;20619;-80
2023/09/16 04:56:41;;;;;;;6.70;5.60;;;;;;;;;;5096016;28;20544;-80
2023/09/16 04:59:07;;;;;;;7.07;6.37;;;;;;;;;;5096647;28;20410;-79
2023/09/16 05:01:33;;;;;;;12.10;6.40;;;;;;;;;;5093759;28;20409;-79
2023/09/16 05:03:59;;;;;;;8.37;5.30;;;;;;;;;;5094341;28;20890;-78
2023/09/16 05:06:25;;;;;;;9.80;6.10;;;;;;;;;;5094793;28;20417;-80
2023/09/16 05:08:54;;;;;;;5.80;5.07;;;;;;;;;;5095876;28;20557;-78
2023/09/16 05:11:20;;;;;;;6.33;5.10;;;;;;;;;;5094868;28;20915;-77
2023/09/16 05:13:46;;;;;;;5.90;5.40;;;;;;;;;;5095392;28;20417;-77
2023/09/16 05:16:12;;;;;;;8.17;7.20;;;;;;;;;;5094992;28;20421;-78
2023/09/16 05:18:38;;;;;;;8.70;5.83;;;;;;;;;;5095703;28;20898;-80
2023/09/16 05:21:04;;;;;;;7.80;6.40;;;;;;;;;;5093653;28;20466;-77
2023/09/16 05:23:30;;;;;;;6.63;5.97;;;;;;;;;;5094603;28;20531;-78
2023/09/16 05:25:56;;;;;;;7.40;6.30;;;;;;;;;;5095023;28;20450;-78
2023/09/16 05:28:22;;;;;;;6.20;5.60;;;;;;;;;;5095371;28;20228;-81
2023/09/16 05:30:48;;;;;;;7.73;4.93;;;;;;;;;;5095557;28;20409;-78
2023/09/16 05:33:14;;;;;;;6.87;6.17;;;;;;;;;;5094180;28;20996;-79
2023/09/16 05:35:41;;;;;;;6.30;5.63;;;;;;;;;;5095477;28;20470;-78
2023/09/16 05:38:07;;;;;;;10.03;5.63;;;;;;;;;;5095496;28;21104;-79
2023/09/16 05:40:33;;;;;;;6.27;5.67;;;;;;;;;;5108512;28;20433;-76
2023/09/16 05:42:59;;;;;;;7.03;5.47;;;;;;;;;;5094989;28;20467;-77
2023/09/16 05:45:25;;;;;;;5.37;4.87;;;;;;;;;;5095386;28;20433;-76
2023/09/16 05:47:52;;;;;;;7.43;5.77;;;;;;;;;;5095188;28;20414;-77
2023/09/16 05:50:18;;;;;;;7.10;4.93;;;;;;;;;;5095238;28;20463;-77
2023/09/16 05:52:43;;;;;;;5.80;5.30;;;;;;;;;;5093878;28;20507;-76
2023/09/16 05:55:09;;;;;;;6.60;5.00;;;;;;;;;;5095626;28;20419;-76
2023/09/16 05:57:36;;;;;;;6.70;5.60;;;;;;;;;;5095279;28;20414;-80
2023/09/16 06:00:02;;;;;;;7.07;5.07;;;;;;;;;;5094852;28;20503;-83
2023/09/16 06:02:28;;;;;;;6.60;5.07;;;;;;;;;;5095227;28;20808;-78
2023/09/16 06:04:54;;;;;;;8.50;5.77;;;;;;;;;;5093954;28;20422;-82
2023/09/16 06:07:20;;;;;;;5.33;4.80;;;;;;;;;;5093509;28;20406;-77
2023/09/16 06:09:46;;;;;;;5.40;4.87;;;;;;;;;;5094539;28;20469;-79
2023/09/16 06:12:12;;;;;;;5.00;4.50;;;;;;;;;;5093075;28;20886;-77
2023/09/16 06:14:39;;;;;;;7.90;5.90;;;;;;;;;;5094697;28;20263;-82
2023/09/16 06:17:05;;;;;;;5.90;4.70;;;;;;;;;;5093468;28;20222;-83
2023/09/16 06:19:32;;;;;;;7.20;5.43;;;;;;;;;;5093336;28;20787;-83
2023/09/16 06:21:58;;;;;;;4.93;4.40;;;;;;;;;;5091916;28;20451;-75
2023/09/16 06:24:24;;;;;;;6.40;5.07;;;;;;;;;;5094529;28;20415;-83
2023/09/16 06:26:51;;;;;;;7.73;4.53;;;;;;;;;;5094067;28;20446;-76
2023/09/16 06:29:20;;;;;;;6.13;5.50;;;;;;;;;;5091467;28;20485;-83
2023/09/16 06:31:46;;;;;;;5.63;5.10;;;;;;;;;;5094334;28;20408;-76
2023/09/16 06:34:12;;;;;;;5.80;4.70;;;;;;;;;;5094591;28;20414;-76
2023/09/16 06:36:40;;;;;;;4.43;3.93;;;;;;;;;;5094797;28;20413;-77
2023/09/16 06:39:07;;;;;;;5.33;3.37;;;;;;;;;;5094815;28;20412;-78
2023/09/16 06:41:33;;;;;;;4.47;3.43;;;;;;;;;;5094327;28;20922;-77
2023/09/16 06:43:59;;;;;;;5.00;3.50;;;;;;;;;;5094677;28;20421;-78
2023/09/16 06:46:25;;;;;;;4.60;3.60;;;;;;;;;;5094680;28;20402;-77
2023/09/16 06:48:54;;;;;;;4.10;3.37;;;;;;;;;;5094430;28;20221;-77
2023/09/16 06:51:20;;;;;;;4.77;3.53;;;;;;;;;;5094529;28;20202;-77
2023/09/16 06:53:46;;;;;;;5.10;3.53;;;;;;;;;;5094499;28;20422;-77
2023/09/16 06:56:12;;;;;;;4.23;3.83;;;;;;;;;;5094030;28;20174;-82
2023/09/16 06:58:37;;;;;;;4.40;3.20;;;;;;;;;;5092151;28;20938;-78
2023/09/16 07:01:09;;;;;;;5.53;4.00;;;;;;;;;;5073986;28;20175;-77
2023/09/16 07:03:35;;;;;;;4.93;3.40;;;;;;;;;;5073872;28;20230;-80
2023/09/16 07:06:01;;;;;;;4.13;3.70;;;;;;;;;;5074000;28;20816;-76
2023/09/16 07:08:27;;;;;;;3.73;3.43;;;;;;;;;;5073767;28;20194;-76
2023/09/16 07:10:54;;;;;;;5.47;3.37;;;;;;;;;;5072904;28;20417;-78
2023/09/16 07:13:20;;;;;;;4.33;3.93;;;;;;;;;;5073587;28;20171;-76
2023/09/16 07:15:52;;;;;;;4.57;3.77;;;;;;;;;;5073854;28;20490;-77
2023/09/16 07:18:18;;;;;;;5.30;2.90;;;;;;;;;;5073780;28;20186;-77
2023/09/16 07:20:44;;;;;;;4.07;3.67;;;;;;;;;;5073632;28;20408;-78
2023/09/16 07:23:10;;;;;;;5.00;3.60;;;;;;;;;;5073670;28;20172;-77
2023/09/16 07:25:36;;;;;;;3.63;3.33;;;;;;;;;;5073594;28;20410;-86
2023/09/16 07:28:04;;;;;;;4.90;3.50;;;;;;;;;;5073270;28;20180;-77
2023/09/16 07:30:30;;;;;;;4.43;3.00;;;;;;;;;;5073441;28;20181;-88
2023/09/16 07:32:59;;;;;;;5.07;4.07;;;;;;;;;;5073525;28;20406;-82
2023/09/16 07:35:25;;;;;;;4.17;3.27;;;;;;;;;;5072135;28;20426;-77
2023/09/16 07:37:51;;;;;;;5.53;3.67;;;;;;;;;;5073468;28;20414;-76
2023/09/16 07:40:17;;;;;;;5.40;3.70;;;;;;;;;;5073424;28;20173;-77
2023/09/16 07:42:43;;;;;;;5.17;3.80;;;;;;;;;;5072982;28;20407;-85
2023/09/16 07:45:09;;;;;;;3.73;2.90;;;;;;;;;;5073180;28;20439;-88
2023/09/16 07:47:35;;;;;;;3.90;2.90;;;;;;;;;;5072137;28;20178;-82
2023/09/16 07:50:02;;;;;;;5.87;3.77;;;;;;;;;;5088939;28;20470;-83
2023/09/16 07:52:29;;;;;;;4.03;3.70;;;;;;;;;;5093596;28;20425;-89
2023/09/16 07:54:55;;;;;;;5.10;3.90;;;;;;;;;;5093116;28;20414;-87
2023/09/16 07:57:21;;;;;;;4.30;3.90;;;;;;;;;;5092634;28;20430;-80
2023/09/16 07:59:47;;;;;;;4.40;3.63;;;;;;;;;;5092910;28;20413;-81
2023/09/16 08:02:13;;;;;;;4.47;3.70;;;;;;;;;;5092647;28;20582;-81
2023/09/16 08:04:39;;;;;;;4.77;3.67;;;;;;;;;;5091456;28;20180;-82
2023/09/16 08:07:05;;;;;;;5.17;3.53;;;;;;;;;;5093029;28;20169;-83
2023/09/16 08:09:31;;;;;;;5.23;3.80;;;;;;;;;;5092681;28;20628;-81
2023/09/16 08:11:56;;;;;;;5.53;4.30;;;;;;;;;;5092511;28;20232;-81
2023/09/16 08:14:23;;;;;;;8.30;4.20;;;;;;;;;;5092789;28;20199;-81
2023/09/16 08:16:48;;;;;;;3.70;3.40;;;;;;;;;;5092693;28;20680;-81
2023/09/16 08:19:16;;;;;;;4.10;3.23;;;;;;;;;;5092848;28;20503;-81
2023/09/16 08:21:42;;;;;;;5.37;3.93;;;;;;;;;;5085119;28;20402;-84
2023/09/16 08:24:08;;;;;;;5.07;4.10;;;;;;;;;;5091468;28;20414;-81
2023/09/16 08:26:34;;;;;;;9.00;4.17;;;;;;;;;;5092392;28;20179;-81
2023/09/16 08:29:00;;;;;;;6.63;4.73;;;;;;;;;;5092414;28;20206;-81
2023/09/16 08:31:26;;;;;;;5.27;4.17;;;;;;;;;;5092618;28;20496;-81
2023/09/16 08:33:52;;;;;;;6.13;3.90;;;;;;;;;;5092576;28;20209;-84
2023/09/16 08:36:18;;;;;;;5.33;4.10;;;;;;;;;;5092459;28;20166;-85
2023/09/16 08:38:43;;;;;;;5.63;3.97;;;;;;;;;;5092441;28;20410;-81
2023/09/16 08:41:18;;;;;;;5.97;4.50;;;;;;;;;;5091960;28;20420;-80
2023/09/16 08:43:45;;;;;;;4.63;4.23;;;;;;;;;;5090416;28;20225;-82
2023/09/16 08:46:13;;;;;;;6.50;4.40;;;;;;;;;;5092244;28;20512;-81
2023/09/16 08:48:42;;;;;;;4.30;3.40;;;;;;;;;;5092245;28;20464;-81
2023/09/16 08:51:09;;;;;;;3.80;3.50;;;;;;;;;;5092285;28;20427;-80
2023/09/16 08:53:37;;;;;;;4.93;4.43;;;;;;;;;;5092474;28;20412;-83
2023/09/16 08:56:03;;;;;;;4.83;4.07;;;;;;;;;;5089270;28;20502;-81
2023/09/16 08:58:33;;;;;;;4.17;3.40;;;;;;;;;;5092293;28;20875;-82
2023/09/16 09:00:59;;;;;;;5.50;4.23;;;;;;;;;;5092067;28;20473;-80
2023/09/16 09:03:25;;;;;;;3.97;3.67;;;;;;;;;;5091966;28;20541;-82
2023/09/16 09:05:54;;;;;;;4.33;3.60;;;;;;;;;;5092140;28;20426;-86
2023/09/16 09:08:20;;;;;;;4.27;3.20;;;;;;;;;;5092109;28;20453;-84
2023/09/16 09:10:46;;;;;;;5.27;3.17;;;;;;;;;;5091703;28;20407;-85
2023/09/16 09:13:13;;;;;;;3.93;3.17;;;;;;;;;;5092147;28;20489;-82
2023/09/16 09:15:44;;;;;;;3.80;3.17;;;;;;;;;;5091916;28;20438;-87
2023/09/16 09:18:12;;;;;;;4.47;4.07;;;;;;;;;;5092010;28;20497;-84
2023/09/16 09:20:38;;;;;;;3.40;3.10;;;;;;;;;;5092066;28;20410;-82
2023/09/16 09:23:04;;;;;;;4.33;3.80;;;;;;;;;;5091526;28;20411;-90
2023/09/16 09:25:32;;;;;;;3.90;3.43;;;;;;;;;;5092409;28;20536;-82
2023/09/16 09:27:57;;;;;;;7.20;3.37;;;;;;;;;;5092218;28;20414;-92
2023/09/16 09:30:27;;;;;;;3.53;3.00;;;;;;;;;;5092070;28;20474;-83
2023/09/16 09:32:56;;;;;;;3.83;3.40;;;;;;;;;;5092355;28;20259;-84
2023/09/16 09:35:23;;;;;;;5.00;3.60;;;;;;;;;;5094518;28;20410;-83
2023/09/16 09:37:49;;;;;;;4.17;3.50;;;;;;;;;;5095796;28;20419;-83
2023/09/16 09:40:15;;;;;;;4.10;3.27;;;;;;;;;;5095841;28;20455;-83
2023/09/16 09:42:45;;;;;;;4.10;2.77;;;;;;;;;;5095121;28;20414;-83
2023/09/16 09:45:12;;;;;;;2.83;2.63;;;;;;;;;;5095986;28;20455;-81
2023/09/16 09:47:38;;;;;;;3.83;3.43;;;;;;;;;;5095592;28;20463;-89
2023/09/16 09:50:08;;;;;;;4.30;2.80;;;;;;;;;;5095803;28;20462;-84
2023/09/16 09:52:34;;;;;;;3.50;3.20;;;;;;;;;;5094438;28;20444;-82
2023/09/16 09:55:01;;;;;;;3.20;2.83;;;;;;;;;;5095910;28;20442;-79
2023/09/16 09:57:30;;;;;;;3.57;2.97;;;;;;;;;;5095352;28;20916;-88
2023/09/16 09:59:56;;;;;;;3.53;2.70;;;;;;;;;;5095730;28;20411;-86
2023/09/16 10:02:29;;;;;;;5.73;3.30;;;;;;;;;;5095342;28;20454;-82
2023/09/16 10:05:01;;;;;;;4.00;3.60;;;;;;;;;;5094267;28;20466;-81
2023/09/16 10:07:30;;;;;;;5.93;2.67;;;;;;;;;;5090951;28;20427;-83
2023/09/16 10:09:56;;;;;;;3.90;3.30;;;;;;;;;;5098608;22;20488;-82
2023/09/16 10:12:22;;;;;;;4.17;3.20;;;;;;;;;;5054414;28;20412;-82
2023/09/16 10:14:49;;;;;;;3.70;3.20;;;;;;;;;;5054918;28;20180;-83
2023/09/16 10:17:18;;;;;;;5.20;3.60;;;;;;;;;;5054717;28;20412;-82
2023/09/16 10:19:44;;;;;;;3.43;2.40;;;;;;;;;;5054649;28;20908;-82
2023/09/16 10:22:12;;;;;;;3.73;2.53;;;;;;;;;;5054500;28;20772;-83
2023/09/16 10:24:39;;;;;;;2.83;2.63;;;;;;;;;;5070046;28;20478;-82
2023/09/16 10:27:26;;;;;;;4.27;3.00;;;;;;;;;;5053915;28;20499;-82
2023/09/16 10:29:54;;;;;;;4.17;2.93;;;;;;;;;;5037018;28;20435;-83
2023/09/16 10:32:20;;;;;;;3.30;2.90;;;;;;;;;;5053979;28;20978;-87
2023/09/16 10:34:47;;;;;;;3.60;2.93;;;;;;;;;;5054225;28;20416;-82
2023/09/16 10:37:15;;;;;;;2.53;2.30;;;;;;;;;;5053999;28;20455;-84
2023/09/16 10:39:42;;;;;;;3.47;2.93;;;;;;;;;;5054181;28;20842;-83
2023/09/16 10:42:08;;;;;;;3.20;2.60;;;;;;;;;;5053891;28;20415;-83
2023/09/16 10:44:35;;;;;;;3.50;2.80;;;;;;;;;;5054062;28;20459;-81
2023/09/16 10:47:06;;;;;;;7.33;3.23;;;;;;;;;;5053886;28;20421;-89
2023/09/16 10:49:32;;;;;;;3.87;3.13;;;;;;;;;;5054103;28;20416;-83
2023/09/16 10:52:02;;;;;;;3.33;2.93;;;;;;;;;;5053886;28;20503;-82
2023/09/16 10:54:33;;;;;;;3.67;3.37;;;;;;;;;;5054041;28;20178;-82
2023/09/16 10:57:05;;;;;;;3.37;2.57;;;;;;;;;;5053459;28;20405;-82
2023/09/16 10:59:32;;;;;;;2.93;2.70;;;;;;;;;;5053807;28;20472;-80
2023/09/16 11:02:03;;;;;;;2.50;1.93;;;;;;;;;;5053711;28;20404;-82
2023/09/16 11:04:29;;;;;;;4.37;3.10;;;;;;;;;;5053257;28;20413;-82
2023/09/16 11:06:57;;;;;;;2.97;2.67;;;;;;;;;;5053582;28;20420;-82
2023/09/16 11:09:24;;;;;;;2.50;2.30;;;;;;;;;;5053264;28;20244;-80
2023/09/16 11:11:50;;;;;;;5.33;2.60;;;;;;;;;;5053191;28;20830;-83
2023/09/16 11:14:17;;;;;;;2.70;2.20;;;;;;;;;;5053428;28;20452;-85
2023/09/16 11:16:48;;;;;;;5.23;2.20;;;;;;;;;;5053333;28;20499;-83
2023/09/16 11:19:24;;;;;;;3.80;2.10;;;;;;;;;;5051937;28;20480;-81
2023/09/16 11:21:58;;;;;;;2.20;2.00;;;;;;;;;;5053355;28;20466;-80
2023/09/16 11:24:24;;;;;;;2.47;1.40;;;;;;;;;;5053247;28;20404;-80
2023/09/16 11:26:51;;;;;;;4.00;2.10;;;;;;;;;;5051439;28;20757;-83
2023/09/16 11:29:24;;;;;;;2.80;1.60;;;;;;;;;;5053117;28;20416;-84
2023/09/16 11:31:50;;;;;;;2.00;1.90;;;;;;;;;;5052948;28;20400;-80
2023/09/16 11:34:19;;;;;;;1.43;1.33;;;;;;;;;;5051623;28;20473;-82
2023/09/16 11:36:49;;;;;;;3.43;1.90;;;;;;;;;;5052920;28;20408;-80
2023/09/16 11:39:17;;;;;;;3.70;2.30;;;;;;;;;;5052669;28;20468;-78
2023/09/16 11:41:43;;;;;;;2.20;2.00;;;;;;;;;;5051092;28;20829;-83
2023/09/16 11:44:09;;;;;;;2.07;1.83;;;;;;;;;;5051476;28;20451;-79
2023/09/16 11:46:35;;;;;;;3.13;1.90;;;;;;;;;;5052519;28;20178;-81
2023/09/16 11:49:20;;;;;;;2.57;1.70;;;;;;;;;;5052423;28;20863;-82
2023/09/16 11:51:50;;;;;;;2.90;1.70;;;;;;;;;;5052429;28;20272;-79
2023/09/16 11:54:17;;;;;;;1.93;1.80;;;;;;;;;;5052898;28;20752;-83
2023/09/16 11:56:43;;;;;;;1.87;1.67;;;;;;;;;;5052025;28;20963;-81
2023/09/16 11:59:09;;;;;;;2.47;1.67;;;;;;;;;;5052435;28;20495;-84
2023/09/16 12:01:36;;;;;;;2.00;1.80;;;;;;;;;;5046134;28;20186;-83
2023/09/16 12:04:04;;;;;;;1.67;1.40;;;;;;;;;;5067989;28;20424;-82
2023/09/16 12:06:31;;;;;;;2.00;1.80;;;;;;;;;;5052721;28;20799;-80
2023/09/16 12:08:58;;;;;;;1.70;1.47;;;;;;;;;;5051437;28;20548;-85
2023/09/16 12:11:25;;;;;;;2.20;1.67;;;;;;;;;;5051347;28;20469;-85
2023/09/16 12:13:53;;;;;;;3.27;2.13;;;;;;;;;;5052273;28;20401;-86
2023/09/16 12:16:19;;;;;;;2.00;1.90;;;;;;;;;;5052196;28;20447;-88
2023/09/16 12:18:45;;;;;;;2.07;1.80;;;;;;;;;;5051260;28;20983;-86
2023/09/16 12:21:12;;;;;;;3.30;2.00;;;;;;;;;;5047777;28;20292;-82
2023/09/16 12:23:39;;;;;;;2.90;1.13;;;;;;;;;;5049975;28;20916;-81
2023/09/16 12:26:07;;;;;;;1.67;1.50;;;;;;;;;;5050882;28;20455;-82
2023/09/16 12:28:33;;;;;;;1.80;1.70;;;;;;;;;;5050920;28;20411;-80
2023/09/16 12:30:59;;;;;;;2.20;1.90;;;;;;;;;;5052186;28;20462;-77
2023/09/16 12:33:44;;;;;;;5.30;1.90;;;;;;;;;;5052350;28;20291;-81
2023/09/16 12:36:23;;;;;;;2.40;2.20;;;;;;;;;;5051147;28;20643;-79
2023/09/16 12:38:50;;;;;;;1.80;1.00;;;;;;;;;;5052589;28;20470;-84
2023/09/16 12:41:16;;;;;;;2.10;1.23;;;;;;;;;;5051807;28;20515;-86
2023/09/16 12:43:44;;;;;;;1.50;1.40;;;;;;;;;;5052282;28;20436;-88
2023/09/16 12:46:10;;;;;;;2.20;1.40;;;;;;;;;;5051111;28;20916;-81
2023/09/16 12:48:38;;;;;;;2.10;1.13;;;;;;;;;;5052343;28;20435;-79
2023/09/16 12:51:04;;;;;;;2.07;1.10;;;;;;;;;;5051856;28;20508;-79
2023/09/16 12:53:30;;;;;;;1.70;1.33;;;;;;;;;;5051794;28;20412;-78
2023/09/16 12:55:59;;;;;;;1.83;1.73;;;;;;;;;;5043285;28;20454;-79
2023/09/16 12:58:25;;;;;;;1.87;1.63;;;;;;;;;;5032253;28;20412;-81
2023/09/16 13:00:52;;;;;;;2.03;1.30;;;;;;;;;;5032321;28;20421;-80
2023/09/16 13:03:18;;;;;;;2.77;1.10;;;;;;;;;;5032266;28;20183;-80
2023/09/16 13:05:53;;;;;;;1.40;1.03;;;;;;;;;;5032583;28;20421;-80
2023/09/16 13:08:20;;;;;;;2.07;1.57;;;;;;;;;;5035553;28;20428;-79
2023/09/16 13:10:49;;;;;;;1.30;1.00;;;;;;;;;;5039712;28;20468;-81
2023/09/16 13:13:16;;;;;;;1.93;1.37;;;;;;;;;;5034323;28;20538;-80
2023/09/16 13:15:43;;;;;;;2.13;1.17;;;;;;;;;;5035832;28;20431;-81
2023/09/16 13:18:09;;;;;;;1.73;1.23;;;;;;;;;;5051208;28;20425;-86
2023/09/16 13:20:39;;;;;;;5.30;1.87;;;;;;;;;;5034502;28;20494;-87
2023/09/16 13:23:05;;;;;;;3.10;1.40;;;;;;;;;;5035406;28;20828;-78
2023/09/16 13:25:37;;;;;;;3.13;2.00;;;;;;;;;;5044896;28;20416;-80
2023/09/16 13:28:14;;;;;;;4.77;1.60;;;;;;;;;;5055599;28;20419;-79
2023/09/16 13:30:42;;;;;;;4.73;1.60;;;;;;;;;;5055806;28;20422;-80
2023/09/16 13:33:09;;;;;;;3.87;1.83;;;;;;;;;;5054892;28;20443;-79
2023/09/16 13:35:35;;;;;;;2.63;1.73;;;;;;;;;;5055403;28;20412;-80
2023/09/16 13:38:05;;;;;;;2.57;1.50;;;;;;;;;;5047578;28;20431;-79
2023/09/16 13:40:31;;;;;;;3.83;1.83;;;;;;;;;;5070111;28;20476;-80
2023/09/16 13:42:57;;;;;;;2.60;2.20;;;;;;;;;;5066172;28;20432;-82
2023/09/16 13:45:23;;;;;;;2.27;1.43;;;;;;;;;;5047376;28;20473;-81
2023/09/16 13:48:08;;;;;;;2.10;1.80;;;;;;;;;;5041291;28;20417;-83
2023/09/16 13:50:35;;;;;;;2.80;2.40;;;;;;;;;;5035378;28;20490;-83
2023/09/16 13:53:02;;;;;;;1.80;1.37;;;;;;;;;;5035020;28;20428;-85
2023/09/16 13:55:28;;;;;;;2.40;1.70;;;;;;;;;;5034591;28;20420;-80
2023/09/16 13:57:58;;;;;;;1.57;1.47;;;;;;;;;;5034901;28;20462;-81
2023/09/16 14:00:24;;;;;;;1.40;1.30;;;;;;;;;;5035240;28;20206;-88
2023/09/16 14:02:50;;;;;;;1.80;1.20;;;;;;;;;;5035480;28;20539;-86
2023/09/16 14:05:16;;;;;;;3.00;1.90;;;;;;;;;;5035145;28;20270;-90
2023/09/16 14:07:42;;;;;;;1.60;1.30;;;;;;;;;;5050275;28;20264;-88
2023/09/16 14:10:08;;;;;;;2.07;1.83;;;;;;;;;;5034080;28;20476;-81
2023/09/16 14:12:34;;;;;;;3.60;2.03;;;;;;;;;;5034670;28;20690;-83
2023/09/16 14:15:00;;;;;;;1.83;1.40;;;;;;;;;;5034711;28;20563;-85
2023/09/16 14:17:29;;;;;;;2.00;1.70;;;;;;;;;;5034719;28;20409;-82
2023/09/16 14:19:55;;;;;;;2.87;1.50;;;;;;;;;;5033966;28;20221;-82
2023/09/16 14:22:21;;;;;;;2.80;1.70;;;;;;;;;;5034491;28;20965;-80
2023/09/16 14:24:47;;;;;;;2.57;1.30;;;;;;;;;;5034250;28;20210;-81
2023/09/16 14:27:13;;;;;;;2.30;1.53;;;;;;;;;;5049842;28;20421;-78
2023/09/16 14:29:39;;;;;;;2.23;1.93;;;;;;;;;;5034382;28;20170;-79
2023/09/16 14:32:05;;;;;;;2.37;1.87;;;;;;;;;;5042203;28;20170;-81
2023/09/16 14:34:30;;;;;;;2.00;1.60;;;;;;;;;;5053635;28;20205;-82
2023/09/16 14:36:56;;;;;;;2.13;1.23;;;;;;;;;;5055294;28;20641;-83
2023/09/16 14:39:22;;;;;;;3.50;1.50;;;;;;;;;;5054147;28;20260;-82
2023/09/16 14:41:48;;;;;;;1.90;1.63;;;;;;;;;;5053800;28;20408;-87